地図

経路データ

SID SEASON NUMBER BASIN SUBBASIN NAME ISO_TIME NATURE LAT LON WMO_WIND WMO_PRES WMO_AGENCY TRACK_TYPE DIST2LAND LANDFALL IFLAG USA_AGENCY USA_ATCF_ID USA_LAT USA_LON USA_RECORD USA_STATUS USA_WIND USA_PRES USA_SSHS USA_R34_NE USA_R34_SE USA_R34_SW USA_R34_NW USA_R50_NE USA_R50_SE USA_R50_SW USA_R50_NW USA_R64_NE USA_R64_SE USA_R64_SW USA_R64_NW USA_POCI USA_ROCI USA_RMW USA_EYE TOKYO_LAT TOKYO_LON TOKYO_GRADE TOKYO_WIND TOKYO_PRES TOKYO_R50_DIR TOKYO_R50_LONG TOKYO_R50_SHORT TOKYO_R30_DIR TOKYO_R30_LONG TOKYO_R30_SHORT TOKYO_LAND CMA_LAT CMA_LON CMA_CAT CMA_WIND CMA_PRES HKO_LAT HKO_LON HKO_CAT HKO_WIND HKO_PRES NEWDELHI_LAT NEWDELHI_LON NEWDELHI_GRADE NEWDELHI_WIND NEWDELHI_PRES NEWDELHI_CI NEWDELHI_DP NEWDELHI_POCI REUNION_LAT REUNION_LON REUNION_TYPE REUNION_WIND REUNION_PRES REUNION_TNUM REUNION_CI REUNION_RMW REUNION_R34_NE REUNION_R34_SE REUNION_R34_SW REUNION_R34_NW REUNION_R50_NE REUNION_R50_SE REUNION_R50_SW REUNION_R50_NW REUNION_R64_NE REUNION_R64_SE REUNION_R64_SW REUNION_R64_NW BOM_LAT BOM_LON BOM_TYPE BOM_WIND BOM_PRES BOM_TNUM BOM_CI BOM_RMW BOM_R34_NE BOM_R34_SE BOM_R34_SW BOM_R34_NW BOM_R50_NE BOM_R50_SE BOM_R50_SW BOM_R50_NW BOM_R64_NE BOM_R64_SE BOM_R64_SW BOM_R64_NW BOM_ROCI BOM_POCI BOM_EYE BOM_POS_METHOD BOM_PRES_METHOD NADI_LAT NADI_LON NADI_CAT NADI_WIND NADI_PRES WELLINGTON_LAT WELLINGTON_LON WELLINGTON_WIND WELLINGTON_PRES DS824_LAT DS824_LON DS824_STAGE DS824_WIND DS824_PRES TD9636_LAT TD9636_LON TD9636_STAGE TD9636_WIND TD9636_PRES TD9635_LAT TD9635_LON TD9635_WIND TD9635_PRES TD9635_ROCI NEUMANN_LAT NEUMANN_LON NEUMANN_CLASS NEUMANN_WIND NEUMANN_PRES MLC_LAT MLC_LON MLC_CLASS MLC_WIND MLC_PRES USA_GUST BOM_GUST BOM_GUST_PER REUNION_GUST REUNION_GUST_PER USA_SEAHGT USA_SEARAD_NE USA_SEARAD_SE USA_SEARAD_SW USA_SEARAD_NW STORM_SPEED STORM_DIR
2022001S21155 2022 1 SP EA SETH 2021-12-31 12:00:00 TS -20.8000 155.300 PROVISIONAL 491 486 O_____________ tcgp SH042022 -20.8000 155.300 TS 50 989 0 80 150 85 45 80 50 1003 215 50 9 115
2022001S21155 2022 1 SP EA SETH 2021-12-31 15:00:00 TS -20.9952 155.752 PROVISIONAL 495 491 P_____________ SH042022 -20.9261 155.688 TS 52 988 0 82 155 87 50 77 50 1003 222 45 9 115
2022001S21155 2022 1 SP EA SETH 2021-12-31 18:00:00 TS -21.2000 156.200 PROVISIONAL 499 497 O_____________ tcgp SH042022 -21.2000 156.200 TS 55 988 0 85 160 90 55 75 50 1003 230 40 9 117
2022001S21155 2022 1 SP EA SETH 2021-12-31 21:00:00 TS -21.4150 156.630 PROVISIONAL 508 506 P_____________ SH042022 -21.6963 156.874 TS 50 990 0 90 142 112 57 37 25 1004 237 50 10 122
2022001S21155 2022 1 SP EA SETH 2022-01-01 00:00:00 TS -21.7200 157.080 PROVISIONAL 520 512 O_____________ tcvitals SP042022 -22.2000 157.400 TS 45 992 0 95 125 135 60 1005 245 60 8 130
2022001S21155 2022 1 SP EA SETH 2022-01-01 03:00:00 TS -21.9329 157.287 PROVISIONAL 521 507 P_____________ SP042022 -22.4694 157.443 TS -5 97 105 122 75 1005 260 60 5 146
2022001S21155 2022 1 SP EA SETH 2022-01-01 06:00:00 TS -22.1679 157.409 PROVISIONAL 508 508 O_____________ tcvitals SP042022 -22.6583 157.288 TS -5 100 85 110 90 1005 275 60 5 139
2022001S21155 2022 1 SP EA SETH 2022-01-01 09:00:00 TS -22.3126 157.644 PROVISIONAL 519 519 P_____________ SP042022 -22.8852 157.109 TS -5 85 77 80 72 1005 275 60 7 125
2022001S21155 2022 1 SP EA SETH 2022-01-01 12:00:00 TS -22.5434 157.995 PROVISIONAL 543 537 O_____________ tcvitals SP042022 -23.1169 157.175 TS -5 70 70 50 55 1005 275 60 10 129
2022001S21155 2022 1 SP EA SETH 2022-01-01 15:00:00 TS -22.9400 158.495 PROVISIONAL 568 559 P_____________ SP042022 -23.2897 157.921 TS -5 1005 267 60 12 148
2022001S21155 2022 1 SP EA SETH 2022-01-01 18:00:00 TS -23.6000 158.700 PROVISIONAL 559 550 O_____________ tcgp SH042022 -23.6000 158.700 TD 30 1002 -1 1006 260 60 14 168
2022001S21155 2022 1 SP EA SETH 2022-01-01 21:00:00 TS -24.2924 158.810 PROVISIONAL 550 543 P_____________ SH042022 -24.2381 158.887 TD 27 1002 -1 1006 260 60 14 176
2022001S21155 2022 1 SP EA SETH 2022-01-02 00:00:00 TS -25.0000 158.800 PROVISIONAL 543 534 O_____________ tcgp SH042022 -25.0000 158.800 TD 25 1003 -1 1006 260 60 14 185
2022001S21155 2022 1 SP EA SETH 2022-01-02 03:00:00 TS -25.6875 158.673 PROVISIONAL 537 525 P_____________ SH042022 -25.6875 158.673 TD 25 1003 -1 1006 260 60 13 192
2022001S21155 2022 1 SP EA SETH 2022-01-02 06:00:00 SS -26.3000 158.500 PROVISIONAL 528 498 O_____________ tcgp SH042022 -26.3000 158.500 SD 25 1003 -2 1006 260 60 12 191
2022001S21155 2022 1 SP EA SETH 2022-01-02 09:00:00 SS -26.8249 158.415 PROVISIONAL 498 475 P_____________ SH042022 -26.8249 158.415 SD 25 1002 -2 1006 222 60 9 191
2022001S21155 2022 1 SP EA SETH 2022-01-02 12:00:00 SS -27.2000 158.300 PROVISIONAL 475 451 O_____________ tcgp SH042022 -27.2000 158.300 SD 25 1002 -2 1006 185 60 6 209
2022001S21155 2022 1 SP EA SETH 2022-01-02 15:00:00 SS -27.3876 158.065 PROVISIONAL 451 419 P_____________ SH042022 -27.3876 158.065 SD 27 1002 -2 1006 185 60 5 236
2022001S21155 2022 1 SP EA SETH 2022-01-02 18:00:00 SS -27.5000 157.800 PROVISIONAL 419 396 O_____________ tcgp SH042022 -27.5000 157.800 SD 30 1002 -2 1006 185 60 5 234
2022001S21155 2022 1 SP EA SETH 2022-01-02 21:00:00 SS -27.7075 157.570 PROVISIONAL 396 373 P_____________ SH042022 -27.7075 157.570 SD 27 1001 -2 1006 180 55 5 221
2022001S21155 2022 1 SP EA SETH 2022-01-03 00:00:00 SS -27.9000 157.400 PROVISIONAL 373 363 O_____________ tcgp SH042022 -27.9000 157.400 SD 25 1001 -2 1006 175 50 4 212
2022001S21155 2022 1 SP EA SETH 2022-01-03 03:00:00 SS -28.0374 157.342 PROVISIONAL 363 362 P_____________ SH042022 -28.0374 157.342 SD 25 1000 -2 1006 175 50 2 205
2022001S21155 2022 1 SP EA SETH 2022-01-03 06:00:00 SS -28.1000 157.300 PROVISIONAL 362 352 O_____________ tcgp SH042022 -28.1000 157.300 SD 25 1000 -2 1006 175 50 1 258
2022001S21155 2022 1 SP EA SETH 2022-01-03 09:00:00 SS -28.0649 157.187 PROVISIONAL 352 333 P_____________ SH042022 -28.0649 157.187 SD 25 1000 -2 1006 170 50 3 291
2022001S21155 2022 1 SP EA SETH 2022-01-03 12:00:00 SS -28.0000 157.000 PROVISIONAL 333 304 O_____________ tcgp SH042022 -28.0000 157.000 SD 25 1000 -2 1006 165 50 4 277
2022001S21155 2022 1 SP EA SETH 2022-01-03 15:00:00 SS -28.0151 156.708 PROVISIONAL 304 275 P_____________ SH042022 -28.0151 156.708 SD 25 999 -2 1006 165 72 5 270
2022001S21155 2022 1 SP EA SETH 2022-01-03 18:00:00 SS -28.0000 156.400 PROVISIONAL 275 247 O_____________ tcgp SH042022 -28.0000 156.400 SD 25 999 -2 1006 165 95 5 279
2022001S21155 2022 1 SP EA SETH 2022-01-03 21:00:00 SS -27.9324 156.117 PROVISIONAL 247 237 P_____________ SH042022 -27.9324 156.117 SD 25 999 -2 1006 165 95 5 310
2022001S21155 2022 1 SP EA SETH 2022-01-04 00:00:00 SS -27.7000 156.000 PROVISIONAL 242 242 O_____________ tcgp SH042022 -27.7000 156.000 SD 25 1000 -2 1006 165 95 8 6
2022001S21155 2022 1 SP EA SETH 2022-01-04 03:00:00 SS -27.1727 156.206 PROVISIONAL 279 279 P_____________ SH042022 -27.1727 156.206 SD 25 998 -2 1003 172 95 12 22
2022001S21155 2022 1 SP EA SETH 2022-01-04 06:00:00 SS -26.6000 156.500 PROVISIONAL 331 331 O_____________ tcgp SH042022 -26.6000 156.500 SD 25 996 -2 1001 180 95 10 24
2022001S21155 2022 1 SP EA SETH 2022-01-04 09:00:00 SS -26.2324 156.682 PROVISIONAL 356 349 P_____________ SH042022 -26.2324 156.682 SD 27 996 -2 1002 177 87 6 17
2022001S21155 2022 1 SP EA SETH 2022-01-04 12:00:00 SS -26.0000 156.700 PROVISIONAL 349 326 O_____________ tcgp SH042022 -26.0000 156.700 SD 30 996 -2 1003 175 80 4 333
2022001S21155 2022 1 SP EA SETH 2022-01-04 15:00:00 SS -25.8626 156.467 PROVISIONAL 326 285 P_____________ SH042022 -25.8626 156.467 SD 30 996 -2 1002 177 80 6 290
2022001S21155 2022 1 SP EA SETH 2022-01-04 18:00:00 SS -25.8000 156.100 PROVISIONAL 285 256 O_____________ tcgp SH042022 -25.8000 156.100 SD 30 997 -2 1002 180 80 7 280
2022001S21155 2022 1 SP EA SETH 2022-01-04 21:00:00 SS -25.7501 155.740 PROVISIONAL 247 215 P_____________ SH042022 -25.7501 155.740 SD 30 998 -2 1002 180 80 6 279
2022001S21155 2022 1 SP EA SETH 2022-01-05 00:00:00 SS -25.7000 155.400 PROVISIONAL 215 O_____________ tcgp SH042022 -25.7000 155.400 SD 30 1000 -2 1002 180 80 6 279

デジタル台風データ・検索

IBTrACS Databaseについて

本データベースは、米国NOAAが公開する1842年以降の世界の熱帯低気圧のベストトラックデータアーカイブInternational Best Track Archive for Climate Stewardship (IBTrACS)を、ウェブで閲覧しやすい形式に変換したものです。

最終更新日:2022-05-26